Time;durP1;ratioP1;P1;durP2;ratioP2;P2;SDS_P1;SDS_P2;PMS_P1;PMS_P2;Temp;Humidity;BMP_temperature;BMP_pressure;BME280_temperature;BME280_humidity;BME280_pressure;Samples;Min_cycle;Max_cycle;Signal;HPM_P1;HPM_P2
2022/01/05 00:00:09;;;;;;;0.70;0.70;;;;;;;;;;4933623;29;20202;-62
2022/01/05 00:02:36;;;;;;;0.90;0.90;;;;;;;;;;4925686;28;20767;-63
2022/01/05 00:05:04;;;;;;;0.80;0.80;;;;;;;;;;4948696;28;20217;-63
2022/01/05 00:07:31;;;;;;;0.87;0.87;;;;;;;;;;4931573;28;20257;-62
2022/01/05 00:09:59;;;;;;;0.80;0.70;;;;;;;;;;4937897;28;20245;-62
2022/01/05 00:12:26;;;;;;;0.80;0.80;;;;;;;;;;4918764;28;20223;-62
2022/01/05 00:14:54;;;;;;;1.00;1.00;;;;;;;;;;4938699;28;20214;-63
2022/01/05 00:17:21;;;;;;;0.90;0.90;;;;;;;;;;4930474;28;20679;-63
2022/01/05 00:19:49;;;;;;;0.87;0.87;;;;;;;;;;4924825;29;20679;-63
2022/01/05 00:22:16;;;;;;;1.30;1.20;;;;;;;;;;4931320;29;20214;-61
2022/01/05 00:24:44;;;;;;;1.60;0.80;;;;;;;;;;4925826;29;20214;-62
2022/01/05 00:27:11;;;;;;;0.70;0.70;;;;;;;;;;4930624;29;20301;-63
2022/01/05 00:29:38;;;;;;;0.90;0.90;;;;;;;;;;4922854;28;20296;-63
2022/01/05 00:32:06;;;;;;;0.80;0.80;;;;;;;;;;4921444;28;20201;-63
2022/01/05 00:34:34;;;;;;;0.70;0.70;;;;;;;;;;4926738;28;20673;-63
2022/01/05 00:37:01;;;;;;;0.70;0.70;;;;;;;;;;4944586;28;20229;-62
2022/01/05 00:39:28;;;;;;;0.80;0.80;;;;;;;;;;4927384;28;20205;-61
2022/01/05 00:41:56;;;;;;;0.80;0.80;;;;;;;;;;4905547;29;20877;-61
2022/01/05 00:44:24;;;;;;;0.80;0.80;;;;;;;;;;4932111;28;20212;-61
2022/01/05 00:46:51;;;;;;;0.70;0.70;;;;;;;;;;4931753;28;20244;-62
2022/01/05 00:49:19;;;;;;;0.80;0.80;;;;;;;;;;4938474;28;20209;-63
2022/01/05 00:51:46;;;;;;;1.47;1.00;;;;;;;;;;4913721;28;20241;-62
2022/01/05 00:54:13;;;;;;;0.90;0.90;;;;;;;;;;4915356;28;20562;-63
2022/01/05 00:56:41;;;;;;;1.03;1.03;;;;;;;;;;4925689;28;20233;-62
2022/01/05 00:59:08;;;;;;;1.20;1.20;;;;;;;;;;4926052;28;20582;-61
2022/01/05 01:01:36;;;;;;;1.87;1.77;;;;;;;;;;4943616;28;20217;-62
2022/01/05 01:04:05;;;;;;;1.50;1.40;;;;;;;;;;4923181;28;20598;-62
2022/01/05 01:06:33;;;;;;;1.70;1.60;;;;;;;;;;4934281;28;20350;-62
2022/01/05 01:09:00;;;;;;;1.10;1.10;;;;;;;;;;4926681;28;20237;-63
2022/01/05 01:11:27;;;;;;;1.80;1.70;;;;;;;;;;4914700;28;20221;-61
2022/01/05 01:13:55;;;;;;;1.50;1.40;;;;;;;;;;4923639;28;20303;-62
2022/01/05 01:16:22;;;;;;;1.43;1.30;;;;;;;;;;4923800;28;20719;-61
2022/01/05 01:18:50;;;;;;;1.10;1.07;;;;;;;;;;4926664;28;20309;-61
2022/01/05 01:21:18;;;;;;;1.10;1.10;;;;;;;;;;4924706;28;20214;-62
2022/01/05 01:23:54;;;;;;;1.00;1.00;;;;;;;;;;4926015;28;20755;-62
2022/01/05 01:26:26;;;;;;;0.90;0.90;;;;;;;;;;4929063;28;20232;-62
2022/01/05 01:28:54;;;;;;;0.80;0.80;;;;;;;;;;4939465;28;20237;-63
2022/01/05 01:31:22;;;;;;;0.90;0.90;;;;;;;;;;4923322;28;20265;-61
2022/01/05 01:33:49;;;;;;;0.83;0.83;;;;;;;;;;4917304;28;20209;-61
2022/01/05 01:36:16;;;;;;;0.80;0.80;;;;;;;;;;4939051;28;20226;-61
2022/01/05 01:38:44;;;;;;;0.60;0.60;;;;;;;;;;4919652;28;20593;-61
2022/01/05 01:41:12;;;;;;;0.70;0.70;;;;;;;;;;4919131;28;20210;-66
2022/01/05 01:43:39;;;;;;;0.80;0.80;;;;;;;;;;4930536;28;20741;-62
2022/01/05 01:46:08;;;;;;;0.70;0.70;;;;;;;;;;4922988;28;20234;-60
2022/01/05 01:48:36;;;;;;;0.70;0.70;;;;;;;;;;4940816;28;20241;-60
2022/01/05 01:51:03;;;;;;;0.90;0.90;;;;;;;;;;4929255;29;20217;-60
2022/01/05 01:53:31;;;;;;;1.00;0.90;;;;;;;;;;4928654;28;20225;-62
2022/01/05 01:55:59;;;;;;;0.80;0.80;;;;;;;;;;4922358;28;20230;-62
2022/01/05 01:58:27;;;;;;;0.90;0.90;;;;;;;;;;4942287;28;20748;-62
2022/01/05 02:00:55;;;;;;;0.70;0.70;;;;;;;;;;4928986;28;20412;-61
2022/01/05 02:03:22;;;;;;;0.80;0.80;;;;;;;;;;4946190;28;20257;-62
2022/01/05 02:05:49;;;;;;;0.80;0.80;;;;;;;;;;4930348;29;20229;-61
2022/01/05 02:08:17;;;;;;;0.70;0.70;;;;;;;;;;4930411;29;20236;-63
2022/01/05 02:10:44;;;;;;;0.70;0.70;;;;;;;;;;4932779;28;20234;-62
2022/01/05 02:13:12;;;;;;;0.70;0.70;;;;;;;;;;4944265;28;20231;-62
2022/01/05 02:15:43;;;;;;;0.70;0.70;;;;;;;;;;4931219;28;20722;-62
2022/01/05 02:21:19;;;;;;;0.80;0.80;;;;;;;;;;4944390;28;20217;-62
2022/01/05 02:23:46;;;;;;;0.70;0.70;;;;;;;;;;4921626;28;20682;-61
2022/01/05 02:26:14;;;;;;;0.67;0.67;;;;;;;;;;4924278;28;20232;-62
2022/01/05 02:28:42;;;;;;;0.70;0.70;;;;;;;;;;4941243;28;20229;-60
2022/01/05 02:31:09;;;;;;;0.60;0.60;;;;;;;;;;4929683;28;20739;-63
2022/01/05 02:33:39;;;;;;;0.70;0.70;;;;;;;;;;4935695;28;20213;-61
2022/01/05 02:36:06;;;;;;;1.10;0.70;;;;;;;;;;4927913;28;20644;-61
2022/01/05 02:38:34;;;;;;;0.70;0.70;;;;;;;;;;4921470;28;20700;-62
2022/01/05 02:41:07;;;;;;;0.70;0.70;;;;;;;;;;4917916;28;20244;-61
2022/01/05 02:43:36;;;;;;;0.67;0.67;;;;;;;;;;4930947;28;20269;-63
2022/01/05 02:46:04;;;;;;;0.70;0.70;;;;;;;;;;4911584;28;20229;-63
2022/01/05 02:48:33;;;;;;;0.63;0.63;;;;;;;;;;4926908;28;20235;-63
2022/01/05 02:51:00;;;;;;;0.77;0.77;;;;;;;;;;4935385;28;20209;-62
2022/01/05 02:53:29;;;;;;;0.70;0.70;;;;;;;;;;4936018;28;20575;-64
2022/01/05 02:55:57;;;;;;;0.70;0.70;;;;;;;;;;4913081;28;20349;-65
2022/01/05 02:58:24;;;;;;;0.60;0.60;;;;;;;;;;4933251;28;20211;-63
2022/01/05 03:00:52;;;;;;;0.70;0.70;;;;;;;;;;4900507;28;20232;-62
2022/01/05 03:03:19;;;;;;;2.13;0.70;;;;;;;;;;4940142;28;20292;-62
2022/01/05 03:05:47;;;;;;;0.70;0.70;;;;;;;;;;4921925;28;20221;-63
2022/01/05 03:08:15;;;;;;;0.60;0.60;;;;;;;;;;4917674;28;20226;-62
2022/01/05 03:10:42;;;;;;;0.60;0.60;;;;;;;;;;4935747;28;20211;-62
2022/01/05 03:13:09;;;;;;;0.70;0.70;;;;;;;;;;4915196;28;20217;-62
2022/01/05 03:15:37;;;;;;;0.70;0.70;;;;;;;;;;4938975;28;20232;-62
2022/01/05 03:18:05;;;;;;;0.70;0.70;;;;;;;;;;4929208;28;20715;-62
2022/01/05 03:20:34;;;;;;;0.60;0.60;;;;;;;;;;4919197;28;21673;-63
2022/01/05 03:23:03;;;;;;;0.70;0.70;;;;;;;;;;4930467;28;20276;-62
2022/01/05 03:25:31;;;;;;;0.70;0.70;;;;;;;;;;4934181;28;21149;-62
2022/01/05 03:27:59;;;;;;;0.63;0.63;;;;;;;;;;4916962;28;20653;-63
2022/01/05 03:30:28;;;;;;;0.70;0.70;;;;;;;;;;4926612;28;20214;-63
2022/01/05 03:35:27;;;;;;;0.70;0.70;;;;;;;;;;4938648;28;20229;-63
2022/01/05 03:37:55;;;;;;;0.60;0.60;;;;;;;;;;4921512;28;20276;-62
2022/01/05 03:40:23;;;;;;;0.60;0.60;;;;;;;;;;4920849;28;20252;-63
2022/01/05 03:42:51;;;;;;;0.60;0.60;;;;;;;;;;4945796;28;20202;-63
2022/01/05 03:45:18;;;;;;;0.60;0.60;;;;;;;;;;4920096;28;20276;-63
2022/01/05 03:47:46;;;;;;;0.60;0.60;;;;;;;;;;4927923;28;20234;-62
2022/01/05 03:50:13;;;;;;;0.60;0.60;;;;;;;;;;4922468;28;20304;-62
2022/01/05 03:52:41;;;;;;;0.60;0.60;;;;;;;;;;4939846;28;20219;-61
2022/01/05 03:55:08;;;;;;;0.93;0.60;;;;;;;;;;4937014;28;20566;-62
2022/01/05 03:57:36;;;;;;;0.60;0.60;;;;;;;;;;4923440;28;20209;-61
2022/01/05 04:00:04;;;;;;;0.60;0.60;;;;;;;;;;4933393;28;20209;-63
2022/01/05 04:02:31;;;;;;;0.60;0.60;;;;;;;;;;4920172;28;20202;-64
2022/01/05 04:04:59;;;;;;;0.70;0.70;;;;;;;;;;4926632;28;20252;-61
2022/01/05 04:07:26;;;;;;;0.60;0.60;;;;;;;;;;4926119;29;20205;-62
2022/01/05 04:09:53;;;;;;;0.60;0.60;;;;;;;;;;4927975;28;20219;-62
2022/01/05 04:12:22;;;;;;;0.60;0.60;;;;;;;;;;4931334;28;20202;-61
2022/01/05 04:14:49;;;;;;;0.60;0.60;;;;;;;;;;4922020;28;20209;-61
2022/01/05 04:17:16;;;;;;;0.60;0.60;;;;;;;;;;4928450;28;20259;-61
2022/01/05 04:19:44;;;;;;;0.50;0.50;;;;;;;;;;4934485;28;20216;-63
2022/01/05 04:22:11;;;;;;;0.60;0.60;;;;;;;;;;4924718;28;20721;-62
2022/01/05 04:24:38;;;;;;;0.60;0.60;;;;;;;;;;4920877;28;20236;-62
2022/01/05 04:27:06;;;;;;;0.60;0.60;;;;;;;;;;4922998;28;20229;-63
2022/01/05 04:29:34;;;;;;;0.60;0.60;;;;;;;;;;4926924;28;20224;-62
2022/01/05 04:32:07;;;;;;;0.60;0.60;;;;;;;;;;4925664;28;20209;-64
2022/01/05 04:34:34;;;;;;;0.70;0.70;;;;;;;;;;4920237;28;20300;-64
2022/01/05 04:37:22;;;;;;;0.70;0.70;;;;;;;;;;4925622;28;20197;-63
2022/01/05 04:39:50;;;;;;;0.60;0.60;;;;;;;;;;4917457;28;20691;-62
2022/01/05 04:42:18;;;;;;;0.60;0.60;;;;;;;;;;4923473;29;20228;-63
2022/01/05 04:44:46;;;;;;;0.60;0.60;;;;;;;;;;4925658;29;20671;-62
2022/01/05 04:47:13;;;;;;;0.60;0.60;;;;;;;;;;4922647;28;20633;-62
2022/01/05 04:49:41;;;;;;;0.70;0.70;;;;;;;;;;4917605;28;20239;-60
2022/01/05 04:52:08;;;;;;;0.67;0.67;;;;;;;;;;4923006;28;20214;-63
2022/01/05 04:54:36;;;;;;;0.60;0.60;;;;;;;;;;4906307;28;20209;-65
2022/01/05 04:57:06;;;;;;;0.60;0.60;;;;;;;;;;4908956;28;20229;-62
2022/01/05 04:59:36;;;;;;;0.60;0.60;;;;;;;;;;4921165;28;20284;-63
2022/01/05 05:02:04;;;;;;;0.70;0.70;;;;;;;;;;4913447;28;20303;-62
2022/01/05 05:04:32;;;;;;;0.60;0.60;;;;;;;;;;4916069;28;20300;-64
2022/01/05 05:07:00;;;;;;;0.60;0.60;;;;;;;;;;4915596;28;20233;-62
2022/01/05 05:09:28;;;;;;;0.70;0.70;;;;;;;;;;4928827;28;20296;-63
2022/01/05 05:11:55;;;;;;;0.60;0.60;;;;;;;;;;4897233;28;21601;-65
2022/01/05 05:14:23;;;;;;;0.80;0.80;;;;;;;;;;4905741;28;20209;-63
2022/01/05 05:16:50;;;;;;;0.60;0.60;;;;;;;;;;4905572;28;20236;-62
2022/01/05 05:19:18;;;;;;;0.53;0.53;;;;;;;;;;4922354;28;20222;-61
2022/01/05 05:21:46;;;;;;;11.00;6.97;;;;;;;;;;4938591;28;20505;-62
2022/01/05 05:24:15;;;;;;;29.30;17.33;;;;;;;;;;4918716;29;20834;-62
2022/01/05 05:26:43;;;;;;;7.77;6.50;;;;;;;;;;4925998;28;20237;-63
2022/01/05 05:29:10;;;;;;;3.97;3.77;;;;;;;;;;4919703;28;20607;-64
2022/01/05 05:31:38;;;;;;;2.50;2.40;;;;;;;;;;4909285;28;20206;-67
2022/01/05 05:34:06;;;;;;;4.50;4.30;;;;;;;;;;4923469;29;20210;-63
2022/01/05 05:36:33;;;;;;;5.07;4.87;;;;;;;;;;4921358;28;20231;-64
2022/01/05 05:39:00;;;;;;;6.10;5.80;;;;;;;;;;4919864;28;22090;-64
2022/01/05 05:41:28;;;;;;;2.80;2.70;;;;;;;;;;4910832;28;20348;-63
2022/01/05 05:43:55;;;;;;;1.40;1.40;;;;;;;;;;4933243;28;20239;-65
2022/01/05 05:46:23;;;;;;;2.43;2.33;;;;;;;;;;4942488;28;20324;-62
2022/01/05 05:48:50;;;;;;;1.00;1.00;;;;;;;;;;4920906;29;20230;-61
2022/01/05 05:51:17;;;;;;;0.83;0.83;;;;;;;;;;4917415;29;20216;-64
2022/01/05 05:53:45;;;;;;;0.87;0.80;;;;;;;;;;4924173;28;20209;-62
2022/01/05 05:56:12;;;;;;;0.80;0.80;;;;;;;;;;4921429;29;20232;-61
2022/01/05 05:58:39;;;;;;;0.70;0.70;;;;;;;;;;4925441;28;20214;-62
2022/01/05 06:01:07;;;;;;;0.80;0.80;;;;;;;;;;4926801;29;20272;-63
2022/01/05 06:03:35;;;;;;;0.80;0.80;;;;;;;;;;4929537;28;20221;-62
2022/01/05 06:06:02;;;;;;;2.40;2.20;;;;;;;;;;4926494;28;20228;-63
2022/01/05 06:08:30;;;;;;;2.53;2.33;;;;;;;;;;4924911;29;20221;-65
2022/01/05 06:10:57;;;;;;;1.10;1.10;;;;;;;;;;4926718;28;20209;-64
2022/01/05 06:13:24;;;;;;;0.70;0.70;;;;;;;;;;4931814;28;21728;-64
2022/01/05 06:15:52;;;;;;;0.90;0.90;;;;;;;;;;4924928;28;20245;-64
2022/01/05 06:18:19;;;;;;;0.80;0.80;;;;;;;;;;4935898;28;20618;-63
2022/01/05 06:20:47;;;;;;;1.10;1.10;;;;;;;;;;4926388;28;20228;-64
2022/01/05 06:23:15;;;;;;;0.97;0.93;;;;;;;;;;4938561;28;20206;-61
2022/01/05 06:25:42;;;;;;;1.37;1.30;;;;;;;;;;4930595;28;20700;-61
2022/01/05 06:28:11;;;;;;;1.10;1.10;;;;;;;;;;4920669;28;20214;-62
2022/01/05 06:30:39;;;;;;;1.27;1.27;;;;;;;;;;4922385;28;20554;-62
2022/01/05 06:33:07;;;;;;;1.00;1.00;;;;;;;;;;4925458;29;20219;-61
2022/01/05 06:35:35;;;;;;;1.10;1.10;;;;;;;;;;4934616;28;20237;-63
2022/01/05 06:38:02;;;;;;;1.40;1.30;;;;;;;;;;4915020;28;20209;-67
2022/01/05 06:40:30;;;;;;;1.50;1.30;;;;;;;;;;4921949;28;20253;-64
2022/01/05 06:42:59;;;;;;;1.30;1.30;;;;;;;;;;4922875;28;20226;-62
2022/01/05 06:45:26;;;;;;;1.30;1.30;;;;;;;;;;4917828;28;20258;-62
2022/01/05 06:47:54;;;;;;;2.17;2.07;;;;;;;;;;4918327;28;20213;-62
2022/01/05 06:50:21;;;;;;;1.53;1.53;;;;;;;;;;4921207;28;20712;-62
2022/01/05 06:52:49;;;;;;;1.40;1.40;;;;;;;;;;4923977;28;20206;-62
2022/01/05 06:55:16;;;;;;;1.40;1.40;;;;;;;;;;4923048;28;20233;-60
2022/01/05 06:57:44;;;;;;;1.60;1.60;;;;;;;;;;4936071;28;20224;-62
2022/01/05 07:00:12;;;;;;;1.70;1.60;;;;;;;;;;4924999;28;20214;-62
2022/01/05 07:02:40;;;;;;;1.50;1.40;;;;;;;;;;4915720;28;20441;-64
2022/01/05 07:05:07;;;;;;;1.43;1.33;;;;;;;;;;4932850;28;20694;-64
2022/01/05 07:07:36;;;;;;;1.50;1.50;;;;;;;;;;4915546;28;20637;-62
2022/01/05 07:10:07;;;;;;;1.57;1.47;;;;;;;;;;4924031;28;20238;-63
2022/01/05 07:12:36;;;;;;;1.63;1.53;;;;;;;;;;4921267;28;20201;-61
2022/01/05 07:15:05;;;;;;;2.00;1.90;;;;;;;;;;4942172;28;20274;-64
2022/01/05 07:17:32;;;;;;;1.40;1.40;;;;;;;;;;4937732;28;20221;-63
2022/01/05 07:20:00;;;;;;;1.70;1.60;;;;;;;;;;4924273;28;20224;-63
2022/01/05 07:22:28;;;;;;;1.53;1.43;;;;;;;;;;4927271;28;20217;-62
2022/01/05 07:24:59;;;;;;;2.00;1.90;;;;;;;;;;4940197;28;20209;-61
2022/01/05 07:27:26;;;;;;;1.67;1.57;;;;;;;;;;4923384;28;20255;-61
2022/01/05 07:29:53;;;;;;;1.30;1.30;;;;;;;;;;4920988;28;21644;-63
2022/01/05 07:32:21;;;;;;;2.07;1.63;;;;;;;;;;4919517;28;20217;-64
2022/01/05 07:34:49;;;;;;;1.60;1.60;;;;;;;;;;4925634;28;20212;-62
2022/01/05 07:37:16;;;;;;;1.80;1.70;;;;;;;;;;4923801;28;20861;-63
2022/01/05 07:39:43;;;;;;;1.40;1.40;;;;;;;;;;4923041;28;20216;-62
2022/01/05 07:42:11;;;;;;;1.70;1.60;;;;;;;;;;4932072;29;20666;-61
2022/01/05 07:44:39;;;;;;;1.90;1.80;;;;;;;;;;4931704;29;20213;-62
2022/01/05 07:47:07;;;;;;;2.50;1.70;;;;;;;;;;4941453;28;20352;-64
2022/01/05 07:49:35;;;;;;;1.60;1.60;;;;;;;;;;4952773;28;20731;-63
2022/01/05 07:52:02;;;;;;;2.27;2.17;;;;;;;;;;4924789;28;20558;-62
2022/01/05 07:54:29;;;;;;;1.90;1.80;;;;;;;;;;4923527;28;20201;-61
2022/01/05 07:56:57;;;;;;;3.93;1.93;;;;;;;;;;4921359;28;20234;-63
2022/01/05 07:59:24;;;;;;;1.80;1.80;;;;;;;;;;4926736;28;20209;-65
2022/01/05 08:01:52;;;;;;;2.50;2.30;;;;;;;;;;4923165;28;20316;-60
2022/01/05 08:04:20;;;;;;;1.80;1.70;;;;;;;;;;4935212;28;20328;-64
2022/01/05 08:06:47;;;;;;;1.60;1.50;;;;;;;;;;4933440;28;20294;-64
2022/01/05 08:09:14;;;;;;;1.50;1.40;;;;;;;;;;4928066;29;20225;-63
2022/01/05 08:11:42;;;;;;;2.00;1.90;;;;;;;;;;4935574;28;20251;-63
2022/01/05 08:14:09;;;;;;;1.67;1.57;;;;;;;;;;4931419;28;20200;-63
2022/01/05 08:16:37;;;;;;;1.60;1.50;;;;;;;;;;4933627;28;20227;-61
2022/01/05 08:19:04;;;;;;;1.60;1.50;;;;;;;;;;4945809;28;20264;-62
2022/01/05 08:21:32;;;;;;;2.10;2.00;;;;;;;;;;4927492;29;20255;-61
2022/01/05 08:24:00;;;;;;;1.70;1.60;;;;;;;;;;4926488;28;20260;-64
2022/01/05 08:26:28;;;;;;;1.13;1.13;;;;;;;;;;4941510;28;20242;-63
2022/01/05 08:28:55;;;;;;;1.63;1.13;;;;;;;;;;4930907;28;20286;-61
2022/01/05 08:31:22;;;;;;;1.57;1.47;;;;;;;;;;4928761;28;20204;-64
2022/01/05 08:33:50;;;;;;;1.63;1.53;;;;;;;;;;4921317;28;20210;-63
2022/01/05 08:36:17;;;;;;;1.70;1.60;;;;;;;;;;4916170;28;20227;-61
2022/01/05 08:38:45;;;;;;;1.70;1.60;;;;;;;;;;4928009;28;20338;-64
2022/01/05 08:41:12;;;;;;;1.90;1.80;;;;;;;;;;4920331;28;20217;-62
2022/01/05 08:43:40;;;;;;;1.60;1.50;;;;;;;;;;4934881;28;20211;-62
2022/01/05 08:46:07;;;;;;;1.63;1.53;;;;;;;;;;4930308;28;20266;-63
2022/01/05 08:48:36;;;;;;;3.93;3.63;;;;;;;;;;4924789;28;20318;-61
2022/01/05 08:51:04;;;;;;;2.73;2.50;;;;;;;;;;4920380;28;20241;-62
2022/01/05 08:53:31;;;;;;;2.60;2.40;;;;;;;;;;4926869;28;22300;-63
2022/01/05 08:55:58;;;;;;;3.83;3.50;;;;;;;;;;4923825;28;20229;-61
2022/01/05 08:58:26;;;;;;;1.90;1.70;;;;;;;;;;4914985;28;20327;-62
2022/01/05 09:00:53;;;;;;;2.83;2.63;;;;;;;;;;4926461;28;20225;-61
2022/01/05 09:03:21;;;;;;;3.70;1.67;;;;;;;;;;4924490;28;20217;-63
2022/01/05 09:05:49;;;;;;;1.90;1.67;;;;;;;;;;4926939;28;20234;-61
2022/01/05 09:08:16;;;;;;;2.13;1.97;;;;;;;;;;4922061;29;20217;-62
2022/01/05 09:10:43;;;;;;;3.57;2.10;;;;;;;;;;4922797;28;20241;-63
2022/01/05 09:13:12;;;;;;;2.93;2.10;;;;;;;;;;4926984;29;20209;-64
2022/01/05 09:15:40;;;;;;;1.70;1.60;;;;;;;;;;4940709;28;20234;-62
2022/01/05 09:18:08;;;;;;;2.10;1.90;;;;;;;;;;4918683;29;20226;-62
2022/01/05 09:20:36;;;;;;;5.20;2.90;;;;;;;;;;4918677;28;20224;-61
2022/01/05 09:23:04;;;;;;;5.00;2.27;;;;;;;;;;4920944;28;20372;-62
2022/01/05 09:25:31;;;;;;;4.83;2.67;;;;;;;;;;4927454;29;20236;-62
2022/01/05 09:27:59;;;;;;;2.20;2.00;;;;;;;;;;4924931;28;20217;-62
2022/01/05 09:30:27;;;;;;;2.03;1.80;;;;;;;;;;4918338;28;20225;-62
2022/01/05 09:32:55;;;;;;;2.53;1.70;;;;;;;;;;4919756;28;20920;-63
2022/01/05 09:35:24;;;;;;;2.83;1.80;;;;;;;;;;4917422;28;20295;-62
2022/01/05 09:43:15;;;;;;;7.57;5.37;;;;;;;;;;4937616;28;20209;-63
2022/01/05 09:46:05;;;;;;;5.50;4.97;;;;;;;;;;4917038;28;20305;-63
2022/01/05 09:48:45;;;;;;;4.43;2.03;;;;;;;;;;4925815;28;20248;-64
2022/01/05 09:51:14;;;;;;;4.00;2.60;;;;;;;;;;4921741;29;20226;-64
2022/01/05 09:53:41;;;;;;;5.53;2.93;;;;;;;;;;4922100;28;20845;-64
2022/01/05 09:56:31;;;;;;;3.17;2.00;;;;;;;;;;4927371;28;20237;-63
2022/01/05 09:59:03;;;;;;;3.97;3.10;;;;;;;;;;4917515;28;20206;-64
2022/01/05 10:01:31;;;;;;;2.87;2.60;;;;;;;;;;4929242;28;20217;-62
2022/01/05 10:04:00;;;;;;;8.30;2.77;;;;;;;;;;4931979;28;20242;-62
2022/01/05 10:06:37;;;;;;;5.63;2.40;;;;;;;;;;4926274;28;20241;-61
2022/01/05 10:09:05;;;;;;;2.63;2.33;;;;;;;;;;4925360;28;20206;-64
2022/01/05 10:11:33;;;;;;;3.63;2.83;;;;;;;;;;4939143;28;20215;-63
2022/01/05 10:14:01;;;;;;;4.27;2.33;;;;;;;;;;4928090;29;20206;-64
2022/01/05 10:16:28;;;;;;;5.07;2.30;;;;;;;;;;4924180;28;20233;-62
2022/01/05 10:18:56;;;;;;;4.23;2.23;;;;;;;;;;4915104;28;20210;-64
2022/01/05 10:21:23;;;;;;;1.70;1.47;;;;;;;;;;4918259;28;20230;-62
2022/01/05 10:23:52;;;;;;;3.27;1.60;;;;;;;;;;4920586;28;20208;-61
2022/01/05 10:26:29;;;;;;;3.43;1.83;;;;;;;;;;4922060;29;20240;-61
2022/01/05 10:29:07;;;;;;;6.27;2.07;;;;;;;;;;4936811;28;20256;-61
2022/01/05 10:31:36;;;;;;;2.97;1.90;;;;;;;;;;4922614;28;20220;-64
2022/01/05 10:34:21;;;;;;;5.47;1.70;;;;;;;;;;4916016;28;20213;-63
2022/01/05 10:36:48;;;;;;;6.57;1.80;;;;;;;;;;4924684;28;20320;-62
2022/01/05 10:39:16;;;;;;;3.10;1.87;;;;;;;;;;4927299;29;20210;-62
2022/01/05 10:41:44;;;;;;;2.57;1.60;;;;;;;;;;4919675;28;20671;-60
2022/01/05 10:44:14;;;;;;;1.90;1.50;;;;;;;;;;4929535;29;20216;-61
2022/01/05 10:46:43;;;;;;;1.87;1.67;;;;;;;;;;4920947;28;20237;-64
2022/01/05 10:49:21;;;;;;;3.97;1.77;;;;;;;;;;4933361;29;20429;-62
2022/01/05 10:51:49;;;;;;;4.77;1.77;;;;;;;;;;4920548;28;20231;-63
2022/01/05 10:54:23;;;;;;;3.93;1.80;;;;;;;;;;4929499;28;20726;-62
2022/01/05 10:56:50;;;;;;;2.27;1.90;;;;;;;;;;4923694;28;20225;-63
2022/01/05 10:59:35;;;;;;;12.27;5.93;;;;;;;;;;4937088;28;20223;-62
2022/01/05 11:02:22;;;;;;;6.97;4.00;;;;;;;;;;4927859;28;20207;-62
2022/01/05 11:04:51;;;;;;;2.97;2.07;;;;;;;;;;4929365;29;20815;-62
2022/01/05 11:07:22;;;;;;;2.77;2.17;;;;;;;;;;4932696;29;20234;-62
2022/01/05 11:09:54;;;;;;;3.83;2.03;;;;;;;;;;4918984;29;20701;-63
2022/01/05 11:12:30;;;;;;;4.50;1.90;;;;;;;;;;4917598;28;20211;-63
2022/01/05 11:15:18;;;;;;;2.10;1.70;;;;;;;;;;4916239;28;20629;-63
2022/01/05 11:18:04;;;;;;;2.87;2.20;;;;;;;;;;4945999;28;20221;-61
2022/01/05 11:20:31;;;;;;;2.73;2.00;;;;;;;;;;4925901;28;20203;-63
2022/01/05 11:22:59;;;;;;;2.90;1.90;;;;;;;;;;4940064;28;20215;-63
2022/01/05 11:25:27;;;;;;;4.77;1.97;;;;;;;;;;4944650;28;20233;-63
2022/01/05 11:27:54;;;;;;;4.80;2.17;;;;;;;;;;4946867;28;20213;-62
2022/01/05 11:30:22;;;;;;;3.77;2.20;;;;;;;;;;4944430;28;20231;-63
2022/01/05 11:32:50;;;;;;;9.17;2.93;;;;;;;;;;4941816;28;20216;-61
2022/01/05 11:35:18;;;;;;;3.57;1.83;;;;;;;;;;4928704;29;20252;-61
2022/01/05 11:37:46;;;;;;;5.63;2.07;;;;;;;;;;4930427;28;20250;-61
2022/01/05 11:40:14;;;;;;;5.43;2.17;;;;;;;;;;4929048;28;20290;-63
2022/01/05 11:42:45;;;;;;;4.83;1.67;;;;;;;;;;4927687;28;20229;-63
2022/01/05 11:45:26;;;;;;;5.13;2.10;;;;;;;;;;4926162;29;20268;-61
2022/01/05 11:48:10;;;;;;;3.33;2.20;;;;;;;;;;4933209;28;20239;-61
2022/01/05 11:50:42;;;;;;;4.40;2.10;;;;;;;;;;4922837;28;20724;-61
2022/01/05 11:53:10;;;;;;;6.93;2.07;;;;;;;;;;4916489;29;20877;-61
2022/01/05 11:55:57;;;;;;;4.20;2.33;;;;;;;;;;4929052;28;20228;-62
2022/01/05 11:58:26;;;;;;;8.77;2.10;;;;;;;;;;4927538;29;20290;-60
2022/01/05 12:01:29;;;;;;;3.53;2.00;;;;;;;;;;4935225;28;20644;-62
2022/01/05 12:03:57;;;;;;;6.70;2.20;;;;;;;;;;4878978;29;20225;-63
2022/01/05 12:06:31;;;;;;;8.90;2.83;;;;;;;;;;4911593;28;20729;-64
2022/01/05 12:08:59;;;;;;;6.67;3.23;;;;;;;;;;4931770;28;20206;-63
2022/01/05 12:11:27;;;;;;;5.90;1.90;;;;;;;;;;4928799;28;20632;-63
2022/01/05 12:13:54;;;;;;;9.47;2.63;;;;;;;;;;4928096;28;20220;-64
2022/01/05 12:16:23;;;;;;;4.77;1.70;;;;;;;;;;4929043;28;20263;-63
2022/01/05 12:19:07;;;;;;;2.20;1.63;;;;;;;;;;4945770;28;20221;-64
2022/01/05 12:21:45;;;;;;;2.83;1.60;;;;;;;;;;4928873;28;20259;-64
2022/01/05 12:24:13;;;;;;;4.13;1.60;;;;;;;;;;4928943;29;20225;-63
2022/01/05 12:26:41;;;;;;;4.63;1.77;;;;;;;;;;4929499;29;20236;-63
2022/01/05 12:29:08;;;;;;;2.50;1.77;;;;;;;;;;4922785;29;20270;-64
2022/01/05 12:31:48;;;;;;;3.83;2.00;;;;;;;;;;4925169;28;20253;-64
2022/01/05 12:34:35;;;;;;;9.33;2.20;;;;;;;;;;4923455;28;20946;-63
2022/01/05 12:37:02;;;;;;;5.53;2.00;;;;;;;;;;4941020;28;20227;-63
2022/01/05 12:39:49;;;;;;;6.43;2.27;;;;;;;;;;4923843;29;20208;-63
2022/01/05 12:42:25;;;;;;;5.47;2.13;;;;;;;;;;4928591;29;20212;-63
2022/01/05 12:44:53;;;;;;;4.73;1.97;;;;;;;;;;4930803;29;20212;-64
2022/01/05 12:47:36;;;;;;;4.17;1.70;;;;;;;;;;4929767;28;20242;-64
2022/01/05 12:50:16;;;;;;;5.43;2.07;;;;;;;;;;4926037;28;20215;-63
2022/01/05 12:52:43;;;;;;;4.13;1.93;;;;;;;;;;4914075;28;20299;-63
2022/01/05 12:55:11;;;;;;;6.07;1.87;;;;;;;;;;4925470;29;20229;-64
2022/01/05 12:57:39;;;;;;;7.13;2.00;;;;;;;;;;4928267;29;20802;-64
2022/01/05 13:00:07;;;;;;;3.03;1.70;;;;;;;;;;4927591;29;20893;-63
2022/01/05 13:02:40;;;;;;;5.30;1.70;;;;;;;;;;4934760;28;20212;-63
2022/01/05 13:05:08;;;;;;;9.97;2.17;;;;;;;;;;4924265;29;20226;-63
2022/01/05 13:07:39;;;;;;;4.27;1.90;;;;;;;;;;4924477;29;20221;-63
2022/01/05 13:10:11;;;;;;;3.67;1.90;;;;;;;;;;4924493;29;20212;-63
2022/01/05 13:12:39;;;;;;;6.63;2.23;;;;;;;;;;4930851;29;20220;-64
2022/01/05 13:15:09;;;;;;;7.97;2.50;;;;;;;;;;4937716;28;20599;-63
2022/01/05 13:17:39;;;;;;;4.50;2.10;;;;;;;;;;4927559;29;20225;-64
2022/01/05 13:20:13;;;;;;;5.67;2.10;;;;;;;;;;4924508;28;20231;-64
2022/01/05 13:22:49;;;;;;;5.90;1.80;;;;;;;;;;4928223;29;20578;-63
2022/01/05 13:25:24;;;;;;;4.03;2.10;;;;;;;;;;4925619;29;20217;-63
2022/01/05 13:27:59;;;;;;;5.57;2.03;;;;;;;;;;4938425;28;20216;-63
2022/01/05 13:30:28;;;;;;;7.33;1.83;;;;;;;;;;4917663;28;20231;-64
2022/01/05 13:33:00;;;;;;;3.67;1.83;;;;;;;;;;4916244;28;20210;-64
2022/01/05 13:35:37;;;;;;;4.07;1.93;;;;;;;;;;4925859;28;20689;-63
2022/01/05 13:38:06;;;;;;;6.40;2.30;;;;;;;;;;4919140;28;20212;-63
2022/01/05 13:40:35;;;;;;;4.53;2.47;;;;;;;;;;4936283;28;20217;-63
2022/01/05 13:43:04;;;;;;;4.03;2.10;;;;;;;;;;4933052;28;20226;-63
2022/01/05 13:45:39;;;;;;;3.40;2.67;;;;;;;;;;4929938;29;20244;-63
2022/01/05 13:48:19;;;;;;;2.47;1.63;;;;;;;;;;4932941;28;20255;-63
2022/01/05 13:50:48;;;;;;;7.63;2.30;;;;;;;;;;4923528;28;21188;-63
2022/01/05 13:53:19;;;;;;;4.10;2.20;;;;;;;;;;4936716;28;20260;-63
2022/01/05 13:55:51;;;;;;;3.90;2.10;;;;;;;;;;4926892;28;20733;-64
2022/01/05 13:58:25;;;;;;;4.73;2.50;;;;;;;;;;4926140;29;20234;-64
2022/01/05 14:01:01;;;;;;;2.43;2.00;;;;;;;;;;4919425;28;20282;-64
2022/01/05 14:03:33;;;;;;;3.03;1.67;;;;;;;;;;4924774;29;20300;-62
2022/01/05 14:06:02;;;;;;;4.73;2.40;;;;;;;;;;4940715;28;20243;-62
2022/01/05 14:08:30;;;;;;;4.80;2.00;;;;;;;;;;4927079;29;20215;-64
2022/01/05 14:11:07;;;;;;;3.47;2.13;;;;;;;;;;4930375;28;20695;-63
2022/01/05 14:13:41;;;;;;;6.53;2.00;;;;;;;;;;4931609;29;20212;-61
2022/01/05 14:16:14;;;;;;;6.63;2.40;;;;;;;;;;4919733;28;20235;-63
2022/01/05 14:18:43;;;;;;;7.27;2.80;;;;;;;;;;4922973;29;20218;-64
2022/01/05 14:21:10;;;;;;;10.40;2.40;;;;;;;;;;4933609;29;20216;-63
2022/01/05 14:23:42;;;;;;;3.07;1.93;;;;;;;;;;4951265;28;20220;-62
2022/01/05 14:26:09;;;;;;;4.00;1.93;;;;;;;;;;4930966;29;20233;-63
2022/01/05 14:28:37;;;;;;;4.23;2.20;;;;;;;;;;4948040;29;20255;-62
2022/01/05 14:31:10;;;;;;;6.70;2.50;;;;;;;;;;4932051;28;20231;-64
2022/01/05 14:33:49;;;;;;;6.57;2.00;;;;;;;;;;4925983;28;20229;-61
2022/01/05 14:36:18;;;;;;;5.23;1.90;;;;;;;;;;4928964;28;20229;-63
2022/01/05 14:38:52;;;;;;;5.87;1.93;;;;;;;;;;4929967;29;20214;-63
2022/01/05 14:41:20;;;;;;;3.97;1.90;;;;;;;;;;4933704;29;20222;-63
2022/01/05 14:44:04;;;;;;;4.67;1.80;;;;;;;;;;4930781;29;20223;-64
2022/01/05 14:46:31;;;;;;;8.80;2.57;;;;;;;;;;4931506;29;20689;-64
2022/01/05 14:48:59;;;;;;;3.73;2.10;;;;;;;;;;4930099;29;20212;-64
2022/01/05 14:51:30;;;;;;;3.97;1.80;;;;;;;;;;4931030;28;20250;-63
2022/01/05 14:53:59;;;;;;;9.03;2.33;;;;;;;;;;4933172;28;20638;-63
2022/01/05 14:56:28;;;;;;;4.40;2.00;;;;;;;;;;4927225;29;20233;-63
2022/01/05 14:58:55;;;;;;;5.60;1.90;;;;;;;;;;4947991;28;20619;-63
2022/01/05 15:01:23;;;;;;;4.33;1.87;;;;;;;;;;4926684;28;20206;-63
2022/01/05 15:03:51;;;;;;;4.37;1.90;;;;;;;;;;4932287;28;20261;-63
2022/01/05 15:06:18;;;;;;;3.53;1.87;;;;;;;;;;4931074;29;20226;-63